createdAt,value
2023-04-26T00:00:01.718Z,9.93
2023-04-26T00:02:35.860Z,9.07
2023-04-26T00:05:06.746Z,8.52
2023-04-26T00:07:39.482Z,8.48
2023-04-26T00:10:11.056Z,8.48
2023-04-26T00:12:42.718Z,7.72
2023-04-26T00:15:13.514Z,7.40
2023-04-26T00:17:44.499Z,7.28
2023-04-26T00:20:17.880Z,7.30
2023-04-26T00:22:48.245Z,6.53
2023-04-26T00:25:19.014Z,6.88
2023-04-26T00:27:49.532Z,6.60
2023-04-26T00:30:20.059Z,5.75
2023-04-26T00:32:50.620Z,5.93
2023-04-26T00:35:21.974Z,5.82
2023-04-26T00:37:52.360Z,5.55
2023-04-26T00:40:22.832Z,5.57
2023-04-26T00:43:02.069Z,5.95
2023-04-26T00:45:33.514Z,5.32
2023-04-26T00:48:05.869Z,5.20
2023-04-26T00:50:36.920Z,4.90
2023-04-26T00:53:09.201Z,4.93
2023-04-26T00:55:40.541Z,5.50
2023-04-26T00:58:11.060Z,4.88
2023-04-26T01:00:44.355Z,4.57
2023-04-26T01:03:15.082Z,4.82
2023-04-26T01:05:46.382Z,4.55
2023-04-26T01:08:18.793Z,4.70
2023-04-26T01:10:50.814Z,5.13
2023-04-26T01:13:22.333Z,4.35
2023-04-26T01:15:54.042Z,4.77
2023-04-26T01:18:24.537Z,4.90
2023-04-26T01:20:55.619Z,4.75
2023-04-26T01:23:26.979Z,5.30
2023-04-26T01:25:57.885Z,4.60
2023-04-26T01:28:28.300Z,5.68
2023-04-26T01:30:58.972Z,5.45
2023-04-26T01:33:29.577Z,5.03
2023-04-26T01:35:59.744Z,4.43
2023-04-26T01:38:30.113Z,4.70
2023-04-26T01:41:00.530Z,4.30
2023-04-26T01:43:30.993Z,4.53
2023-04-26T01:46:01.696Z,4.97
2023-04-26T01:48:52.648Z,5.22
2023-04-26T01:51:23.434Z,4.95
2023-04-26T01:53:54.736Z,4.60
2023-04-26T01:56:26.612Z,4.53
2023-04-26T01:58:58.012Z,4.63
2023-04-26T02:01:28.826Z,4.10
2023-04-26T02:03:59.371Z,5.40
2023-04-26T02:06:29.606Z,4.63
2023-04-26T02:08:59.973Z,4.75
2023-04-26T02:11:30.643Z,4.65
2023-04-26T02:14:01.033Z,4.60
2023-04-26T02:16:31.702Z,4.80
2023-04-26T02:19:02.381Z,4.53
2023-04-26T02:21:32.672Z,4.40
2023-04-26T02:24:03.193Z,4.78
2023-04-26T02:26:34.301Z,4.57
2023-04-26T02:29:04.691Z,4.00
2023-04-26T02:31:35.312Z,4.75
2023-04-26T02:34:07.794Z,4.53
2023-04-26T02:36:38.593Z,4.32
2023-04-26T02:39:09.095Z,4.43
2023-04-26T02:41:49.188Z,4.25
2023-04-26T02:44:20.718Z,4.70
2023-04-26T02:46:51.429Z,4.47
2023-04-26T02:49:21.837Z,4.45
2023-04-26T02:51:52.509Z,4.90
2023-04-26T02:54:23.727Z,4.93
2023-04-26T02:56:54.735Z,5.22
2023-04-26T02:59:25.796Z,4.63
2023-04-26T03:01:58.335Z,4.75
2023-04-26T03:04:30.338Z,5.25
2023-04-26T03:07:00.952Z,4.70
2023-04-26T03:09:32.487Z,4.47
2023-04-26T03:12:04.756Z,4.85
2023-04-26T03:14:35.496Z,4.70
2023-04-26T03:17:06.727Z,4.57
2023-04-26T03:19:40.563Z,4.97
2023-04-26T03:22:12.916Z,4.90
2023-04-26T03:24:58.548Z,5.00
2023-04-26T03:27:30.606Z,4.80
2023-04-26T03:30:01.316Z,5.10
2023-04-26T03:32:32.993Z,5.78
2023-04-26T03:35:04.183Z,5.38
2023-04-26T03:37:35.201Z,5.03
2023-04-26T03:40:11.841Z,6.07
2023-04-26T03:42:42.685Z,5.55
2023-04-26T03:45:13.855Z,5.63
2023-04-26T03:47:44.270Z,5.40
2023-04-26T03:50:14.748Z,5.97
2023-04-26T03:52:45.111Z,6.10
2023-04-26T03:55:15.644Z,6.55
2023-04-26T03:57:46.421Z,5.80
2023-04-26T04:00:17.825Z,5.60
2023-04-26T04:02:50.424Z,5.82
2023-04-26T04:05:27.218Z,5.63
2023-04-26T04:07:58.389Z,5.30
2023-04-26T04:10:28.915Z,5.40
2023-04-26T04:12:59.416Z,5.55
2023-04-26T04:15:31.235Z,5.50
2023-04-26T04:18:01.736Z,4.93
2023-04-26T04:20:32.670Z,5.15
2023-04-26T04:23:05.908Z,5.13
2023-04-26T04:28:10.927Z,5.47
2023-04-26T04:30:41.669Z,5.00
2023-04-26T04:33:12.163Z,4.93
2023-04-26T04:35:46.454Z,4.57
2023-04-26T04:38:16.895Z,5.28
2023-04-26T04:40:53.755Z,4.95
2023-04-26T04:43:25.054Z,4.90
2023-04-26T04:45:55.747Z,5.40
2023-04-26T04:48:26.502Z,5.30
2023-04-26T04:50:58.276Z,5.15
2023-04-26T04:53:28.970Z,5.15
2023-04-26T04:55:59.541Z,4.93
2023-04-26T04:58:30.126Z,4.85
2023-04-26T05:01:05.381Z,4.50
2023-04-26T05:03:48.060Z,4.70
2023-04-26T05:06:18.656Z,4.38
2023-04-26T05:08:54.114Z,4.65
2023-04-26T05:11:24.604Z,5.07
2023-04-26T05:13:54.987Z,4.60
2023-04-26T05:16:25.783Z,4.28
2023-04-26T05:18:56.580Z,4.47
2023-04-26T05:21:27.676Z,4.60
2023-04-26T05:23:58.141Z,4.30
2023-04-26T05:26:29.115Z,4.88
2023-04-26T05:29:25.659Z,4.63
2023-04-26T05:32:05.709Z,5.15
2023-04-26T05:34:46.534Z,4.47
2023-04-26T05:37:19.590Z,4.75
2023-04-26T05:39:50.923Z,4.75
2023-04-26T05:42:21.335Z,4.45
2023-04-26T05:44:57.397Z,4.85
2023-04-26T05:47:27.904Z,4.40
2023-04-26T05:49:58.669Z,4.38
2023-04-26T05:52:29.891Z,4.75
2023-04-26T05:55:05.129Z,4.50
2023-04-26T05:57:36.181Z,4.10
2023-04-26T06:00:07.796Z,4.57
2023-04-26T06:02:48.255Z,5.22
2023-04-26T06:05:21.138Z,4.78
2023-04-26T06:07:52.133Z,4.60
2023-04-26T06:10:23.074Z,4.18
2023-04-26T06:12:58.012Z,4.53
2023-04-26T06:15:30.945Z,4.82
2023-04-26T06:18:02.419Z,4.28
2023-04-26T06:20:36.139Z,5.32
2023-04-26T06:23:09.444Z,4.43
2023-04-26T06:25:43.760Z,4.90
2023-04-26T06:28:14.951Z,4.60
2023-04-26T06:30:45.918Z,4.82
2023-04-26T06:33:17.450Z,4.82
2023-04-26T06:35:48.689Z,4.95
2023-04-26T06:38:19.140Z,4.35
2023-04-26T06:40:49.592Z,4.32
2023-04-26T06:43:20.983Z,4.60
2023-04-26T06:46:00.456Z,4.28
2023-04-26T06:48:30.869Z,4.68
2023-04-26T06:51:01.390Z,4.65
2023-04-26T06:53:31.755Z,4.40
2023-04-26T06:56:02.287Z,4.35
2023-04-26T06:58:32.660Z,4.45
2023-04-26T07:01:03.611Z,5.15
2023-04-26T07:03:34.478Z,4.70
2023-04-26T07:06:05.991Z,4.30
2023-04-26T07:08:36.387Z,5.07
2023-04-26T07:11:13.122Z,4.40
2023-04-26T07:13:43.689Z,4.45
2023-04-26T07:16:14.239Z,4.20
2023-04-26T07:18:45.306Z,5.22
2023-04-26T07:21:16.110Z,4.63
2023-04-26T07:23:47.538Z,5.28
2023-04-26T07:26:17.914Z,5.05
2023-04-26T07:28:48.493Z,4.47
2023-04-26T07:31:18.887Z,4.82
2023-04-26T07:33:49.899Z,4.72
2023-04-26T07:36:21.076Z,5.03
2023-04-26T07:38:53.586Z,5.63
2023-04-26T07:41:24.305Z,4.82
2023-04-26T07:43:55.234Z,5.15
2023-04-26T07:46:25.766Z,4.78
2023-04-26T07:48:56.282Z,4.70
2023-04-26T07:51:26.653Z,4.45
2023-04-26T07:53:59.827Z,4.70
2023-04-26T07:59:00.037Z,6.07
2023-04-26T08:01:30.618Z,5.68
2023-04-26T08:04:02.476Z,4.28
2023-04-26T08:06:34.776Z,4.90
2023-04-26T08:09:06.820Z,4.82
2023-04-26T08:11:42.061Z,5.28
2023-04-26T08:14:17.667Z,5.80
2023-04-26T08:16:48.222Z,5.20
2023-04-26T08:19:18.894Z,5.25
2023-04-26T08:21:49.954Z,5.00
2023-04-26T08:24:28.457Z,5.32
2023-04-26T08:27:03.366Z,5.40
2023-04-26T08:29:36.473Z,5.18
2023-04-26T08:32:09.994Z,5.38
2023-04-26T08:34:40.636Z,5.05
2023-04-26T08:37:12.774Z,4.65
2023-04-26T08:39:43.390Z,5.43
2023-04-26T08:42:18.593Z,5.07
2023-04-26T08:44:49.036Z,4.57
2023-04-26T08:47:26.897Z,4.70
2023-04-26T08:50:04.320Z,4.68
2023-04-26T08:52:35.165Z,4.82
2023-04-26T08:55:07.196Z,5.60
2023-04-26T08:57:38.380Z,5.55
2023-04-26T09:00:16.167Z,5.07
2023-04-26T09:02:53.098Z,5.00
2023-04-26T09:05:28.724Z,5.03
2023-04-26T09:08:04.995Z,4.82
2023-04-26T09:10:35.564Z,4.85
2023-04-26T09:13:05.782Z,5.10
2023-04-26T09:15:36.151Z,4.60
2023-04-26T09:18:21.312Z,4.68
2023-04-26T09:21:10.465Z,5.00
2023-04-26T09:24:05.863Z,4.85
2023-04-26T09:26:36.252Z,4.88
2023-04-26T09:29:32.994Z,4.97
2023-04-26T09:32:04.239Z,5.07
2023-04-26T09:34:48.504Z,4.70
2023-04-26T09:37:21.801Z,5.15
2023-04-26T09:42:23.192Z,4.65
2023-04-26T09:44:55.407Z,4.68
2023-04-26T09:47:45.528Z,5.18
2023-04-26T09:50:27.301Z,5.10
2023-04-26T09:52:58.352Z,5.35
2023-04-26T09:55:35.453Z,5.00
2023-04-26T09:58:13.400Z,4.60
2023-04-26T10:00:44.932Z,4.90
2023-04-26T10:03:15.975Z,4.60
2023-04-26T10:05:47.956Z,4.90
2023-04-26T10:08:18.395Z,5.00
2023-04-26T10:10:49.935Z,5.10
2023-04-26T10:13:21.476Z,4.80
2023-04-26T10:15:52.999Z,5.15
2023-04-26T10:18:28.107Z,5.20
2023-04-26T10:21:04.364Z,4.75
2023-04-26T10:23:35.803Z,4.90
2023-04-26T10:26:06.714Z,4.85
2023-04-26T10:28:59.904Z,4.97
2023-04-26T10:32:07.498Z,5.10
2023-04-26T10:34:39.182Z,4.72
2023-04-26T10:37:10.805Z,4.75
2023-04-26T10:39:45.354Z,4.70
2023-04-26T10:42:30.088Z,5.78
2023-04-26T10:45:01.906Z,5.57
2023-04-26T10:47:38.988Z,5.45
2023-04-26T10:50:11.479Z,4.15
2023-04-26T10:53:05.096Z,5.10
2023-04-26T10:55:45.595Z,4.87
2023-04-26T10:58:48.707Z,4.97
2023-04-26T11:03:59.252Z,5.07
2023-04-26T11:06:50.205Z,5.35
2023-04-26T11:09:50.285Z,4.82
2023-04-26T11:12:29.349Z,5.05
2023-04-26T11:15:02.649Z,5.60
2023-04-26T11:17:39.876Z,4.90
2023-04-26T11:20:18.935Z,5.13
2023-04-26T11:22:49.698Z,5.40
2023-04-26T11:25:20.879Z,5.28
2023-04-26T11:27:51.263Z,5.07
2023-04-26T11:30:22.676Z,6.00
2023-04-26T11:32:53.222Z,5.28
2023-04-26T11:35:25.268Z,5.63
2023-04-26T11:37:55.833Z,5.15
2023-04-26T11:40:29.242Z,5.13
2023-04-26T11:43:10.104Z,5.68
2023-04-26T11:45:41.279Z,5.20
2023-04-26T11:48:14.517Z,5.25
2023-04-26T11:51:01.582Z,5.40
2023-04-26T11:53:42.575Z,5.28
2023-04-26T11:56:22.082Z,5.30
2023-04-26T11:58:54.558Z,5.75
2023-04-26T12:01:25.963Z,5.50
2023-04-26T12:04:01.651Z,5.90
2023-04-26T12:06:35.369Z,5.75
2023-04-26T12:09:10.763Z,5.55
2023-04-26T12:11:42.849Z,6.07
2023-04-26T12:14:13.343Z,5.53
2023-04-26T12:16:45.759Z,5.65
2023-04-26T12:19:16.758Z,5.65
2023-04-26T12:21:47.239Z,5.88
2023-04-26T12:24:29.001Z,5.88
2023-04-26T12:27:00.378Z,6.00
2023-04-26T12:29:33.557Z,5.63
2023-04-26T12:32:04.684Z,5.93
2023-04-26T12:34:36.205Z,6.25
2023-04-26T12:37:07.077Z,6.25
2023-04-26T12:39:40.698Z,6.65
2023-04-26T12:42:11.946Z,6.55
2023-04-26T12:44:42.314Z,6.20
2023-04-26T12:47:13.100Z,6.45
2023-04-26T12:49:43.954Z,5.85
2023-04-26T12:52:14.335Z,6.63
2023-04-26T12:54:44.914Z,6.30
2023-04-26T12:57:16.093Z,6.43
2023-04-26T12:59:46.903Z,6.57
2023-04-26T13:02:17.300Z,6.63
2023-04-26T13:04:48.187Z,6.95
2023-04-26T13:07:19.004Z,6.55
2023-04-26T13:09:58.193Z,6.38
2023-04-26T13:12:29.362Z,6.60
2023-04-26T13:15:00.253Z,7.13
2023-04-26T13:17:30.979Z,6.55
2023-04-26T13:20:01.482Z,6.25
2023-04-26T13:22:31.780Z,7.07
2023-04-26T13:25:02.519Z,6.68
2023-04-26T13:27:33.109Z,6.95
2023-04-26T13:30:03.976Z,6.60
2023-04-26T13:32:34.206Z,7.50
2023-04-26T13:35:05.799Z,6.25
2023-04-26T13:37:36.238Z,7.07
2023-04-26T13:40:07.689Z,6.95
2023-04-26T13:42:39.281Z,7.25
2023-04-26T13:45:16.607Z,7.22
2023-04-26T13:47:48.030Z,7.00
2023-04-26T13:50:21.231Z,6.55
2023-04-26T13:55:23.151Z,6.60
2023-04-26T13:57:53.780Z,6.65
2023-04-26T14:00:24.810Z,6.88
2023-04-26T14:02:56.536Z,6.88
2023-04-26T14:05:27.805Z,6.95
2023-04-26T14:07:59.110Z,7.28
2023-04-26T14:10:29.502Z,6.68
2023-04-26T14:13:19.685Z,6.47
2023-04-26T14:15:50.531Z,6.65
2023-04-26T14:18:21.024Z,7.15
2023-04-26T14:20:51.506Z,7.40
2023-04-26T14:23:22.003Z,7.55
2023-04-26T14:25:58.997Z,6.25
2023-04-26T14:28:33.910Z,7.55
2023-04-26T14:31:04.569Z,7.40
2023-04-26T14:33:35.426Z,6.20
2023-04-26T14:36:06.335Z,6.93
2023-04-26T14:38:36.746Z,6.72
2023-04-26T14:41:08.239Z,6.53
2023-04-26T14:43:43.162Z,7.13
2023-04-26T14:46:14.013Z,7.35
2023-04-26T14:48:47.395Z,6.80
2023-04-26T14:51:18.002Z,6.50
2023-04-26T14:53:48.616Z,7.43
2023-04-26T14:56:18.949Z,7.45
2023-04-26T14:58:52.236Z,6.90
2023-04-26T15:01:23.229Z,7.55
2023-04-26T15:03:59.362Z,7.25
2023-04-26T15:06:32.325Z,6.38
2023-04-26T15:09:02.953Z,7.35
2023-04-26T15:11:35.272Z,6.75
2023-04-26T15:14:05.845Z,7.78
2023-04-26T15:16:37.157Z,7.00
2023-04-26T15:19:09.011Z,8.02
2023-04-26T15:21:39.490Z,7.70
2023-04-26T15:24:10.327Z,6.75
2023-04-26T15:26:41.051Z,6.78
2023-04-26T15:29:11.439Z,7.13
2023-04-26T15:31:42.037Z,7.50
2023-04-26T15:34:12.483Z,7.50
2023-04-26T15:36:43.037Z,7.07
2023-04-26T15:39:13.693Z,6.70
2023-04-26T15:41:44.363Z,7.38
2023-04-26T15:44:14.810Z,6.32
2023-04-26T15:46:46.069Z,7.22
2023-04-26T15:49:16.360Z,6.97
2023-04-26T15:51:47.018Z,7.07
2023-04-26T15:54:17.522Z,7.25
2023-04-26T15:57:07.968Z,7.30
2023-04-26T15:59:41.035Z,7.20
2023-04-26T16:02:12.082Z,7.05
2023-04-26T16:04:42.994Z,6.75
2023-04-26T16:07:14.046Z,6.93
2023-04-26T16:09:44.303Z,7.00
2023-04-26T16:12:23.315Z,6.20
2023-04-26T16:14:54.180Z,7.30
2023-04-26T16:17:24.678Z,7.65
2023-04-26T16:19:54.849Z,7.20
2023-04-26T16:22:25.435Z,7.47
2023-04-26T16:24:55.821Z,7.15
2023-04-26T16:27:28.076Z,7.07
2023-04-26T16:29:59.156Z,7.78
2023-04-26T16:32:32.003Z,7.20
2023-04-26T16:35:03.106Z,7.05
2023-04-26T16:37:33.543Z,7.00
2023-04-26T16:40:04.158Z,7.00
2023-04-26T16:42:34.509Z,6.90
2023-04-26T16:45:05.074Z,7.60
2023-04-26T16:47:36.580Z,7.00
2023-04-26T16:50:07.624Z,7.07
2023-04-26T16:52:38.171Z,7.32
2023-04-26T16:55:10.141Z,7.45
2023-04-26T16:57:40.484Z,7.40
2023-04-26T17:00:13.074Z,7.30
2023-04-26T17:02:43.755Z,8.40
2023-04-26T17:05:15.139Z,7.20
2023-04-26T17:07:45.552Z,6.75
2023-04-26T17:10:24.119Z,8.10
2023-04-26T17:12:54.522Z,7.20
2023-04-26T17:15:24.842Z,7.45
2023-04-26T17:17:55.258Z,7.40
2023-04-26T17:20:26.079Z,7.72
2023-04-26T17:22:58.356Z,7.85
2023-04-26T17:25:29.419Z,7.28
2023-04-26T17:28:00.657Z,7.38
2023-04-26T17:30:46.859Z,7.25
2023-04-26T17:33:17.888Z,6.60
2023-04-26T17:35:48.833Z,7.32
2023-04-26T17:38:20.201Z,7.10
2023-04-26T17:40:55.585Z,7.82
2023-04-26T17:43:26.062Z,7.55
2023-04-26T17:45:56.898Z,6.72
2023-04-26T17:48:27.311Z,6.75
2023-04-26T17:50:58.494Z,7.38
2023-04-26T17:53:29.030Z,7.55
2023-04-26T17:56:02.250Z,7.03
2023-04-26T17:58:33.231Z,7.05
2023-04-26T18:01:04.219Z,7.78
2023-04-26T18:03:37.082Z,7.43
2023-04-26T18:06:08.774Z,7.32
2023-04-26T18:08:39.332Z,7.18
2023-04-26T18:11:10.067Z,7.72
2023-04-26T18:13:40.285Z,7.60
2023-04-26T18:16:10.967Z,7.00
2023-04-26T18:18:44.060Z,7.53
2023-04-26T18:21:34.156Z,7.35
2023-04-26T18:24:05.203Z,7.35
2023-04-26T18:26:36.030Z,7.88
2023-04-26T18:29:06.609Z,7.68
2023-04-26T18:31:37.103Z,7.72
2023-04-26T18:34:11.111Z,8.02
2023-04-26T18:36:42.485Z,8.02
2023-04-26T18:39:13.078Z,7.72
2023-04-26T18:41:44.259Z,7.93
2023-04-26T18:44:14.896Z,7.90
2023-04-26T18:46:46.094Z,7.85
2023-04-26T18:49:16.552Z,8.30
2023-04-26T18:51:47.505Z,8.27
2023-04-26T18:54:18.245Z,8.63
2023-04-26T18:56:48.597Z,7.93
2023-04-26T18:59:19.238Z,8.38
2023-04-26T19:01:50.691Z,8.15
2023-04-26T19:04:21.493Z,8.52
2023-04-26T19:06:52.157Z,9.27
2023-04-26T19:09:23.255Z,8.50
2023-04-26T19:11:54.108Z,8.18
2023-04-26T19:14:25.121Z,8.43
2023-04-26T19:17:00.219Z,8.80
2023-04-26T19:19:33.675Z,8.95
2023-04-26T19:22:04.923Z,8.63
2023-04-26T19:24:36.132Z,8.55
2023-04-26T19:27:06.749Z,8.20
2023-04-26T19:29:40.193Z,7.68
2023-04-26T19:32:10.579Z,8.00
2023-04-26T19:34:42.156Z,8.02
2023-04-26T19:37:14.543Z,8.00
2023-04-26T19:39:53.150Z,7.90
2023-04-26T19:42:23.507Z,8.20
2023-04-26T19:44:53.915Z,8.00
2023-04-26T19:47:24.427Z,8.43
2023-04-26T19:49:57.007Z,7.78
2023-04-26T19:52:27.975Z,9.02
2023-04-26T19:54:59.138Z,7.85
2023-04-26T19:57:29.307Z,8.25
2023-04-26T19:59:59.855Z,8.18
2023-04-26T20:02:31.249Z,8.77
2023-04-26T20:05:01.590Z,8.77
2023-04-26T20:07:31.893Z,8.63
2023-04-26T20:10:02.326Z,9.10
2023-04-26T20:12:34.982Z,8.07
2023-04-26T20:15:05.492Z,7.82
2023-04-26T20:17:35.981Z,8.00
2023-04-26T20:20:11.881Z,9.07
2023-04-26T20:23:02.605Z,9.10
2023-04-26T20:25:33.461Z,8.55
2023-04-26T20:28:08.283Z,9.43
2023-04-26T20:30:38.992Z,8.77
2023-04-26T20:33:10.099Z,9.13
2023-04-26T20:35:44.867Z,9.48
2023-04-26T20:38:20.192Z,9.45
2023-04-26T20:40:50.616Z,8.38
2023-04-26T20:43:21.432Z,9.20
2023-04-26T20:45:53.374Z,9.05
2023-04-26T20:48:28.296Z,10.00
2023-04-26T20:51:15.882Z,8.40
2023-04-26T20:53:48.984Z,9.30
2023-04-26T20:56:20.170Z,9.07
2023-04-26T20:58:53.261Z,9.27
2023-04-26T21:01:23.662Z,9.98
2023-04-26T21:03:54.221Z,9.68
2023-04-26T21:06:24.763Z,9.00
2023-04-26T21:08:59.628Z,9.23
2023-04-26T21:11:30.059Z,10.95
2023-04-26T21:14:03.217Z,9.73
2023-04-26T21:16:41.490Z,10.05
2023-04-26T21:19:12.096Z,9.60
2023-04-26T21:21:42.695Z,9.30
2023-04-26T21:24:16.141Z,9.50
2023-04-26T21:26:46.617Z,9.73
2023-04-26T21:29:33.281Z,10.50
2023-04-26T21:32:03.836Z,10.32
2023-04-26T21:34:34.212Z,10.40
2023-04-26T21:37:05.256Z,10.07
2023-04-26T21:39:36.582Z,10.15
2023-04-26T21:42:07.281Z,10.25
2023-04-26T21:44:37.682Z,10.55
2023-04-26T21:47:08.267Z,10.68
2023-04-26T21:49:40.992Z,9.90
2023-04-26T21:52:12.149Z,10.38
2023-04-26T21:54:43.380Z,11.15
2023-04-26T21:57:13.815Z,10.27
2023-04-26T21:59:45.411Z,9.93
2023-04-26T22:02:18.581Z,9.95
2023-04-26T22:04:49.230Z,10.20
2023-04-26T22:07:19.615Z,10.45
2023-04-26T22:09:50.220Z,10.63
2023-04-26T22:12:23.438Z,11.38
2023-04-26T22:14:56.469Z,10.00
2023-04-26T22:17:29.522Z,10.30
2023-04-26T22:19:59.932Z,10.15
2023-04-26T22:22:30.278Z,10.43
2023-04-26T22:25:01.235Z,10.10
2023-04-26T22:27:49.102Z,10.30
2023-04-26T22:30:25.424Z,10.05
2023-04-26T22:32:58.881Z,10.35
2023-04-26T22:35:31.529Z,10.82
2023-04-26T22:38:02.043Z,10.60
2023-04-26T22:40:34.155Z,10.50
2023-04-26T22:43:04.539Z,10.32
2023-04-26T22:45:35.413Z,10.73
2023-04-26T22:48:06.040Z,9.63
2023-04-26T22:50:37.249Z,10.48
2023-04-26T22:53:08.332Z,9.98
2023-04-26T22:55:38.699Z,9.85
2023-04-26T22:58:08.856Z,12.57
2023-04-26T23:00:39.299Z,12.85
2023-04-26T23:03:09.690Z,13.38
2023-04-26T23:05:40.159Z,12.65
2023-04-26T23:08:10.727Z,13.57
2023-04-26T23:10:41.763Z,13.77
2023-04-26T23:13:12.458Z,13.63
2023-04-26T23:15:43.477Z,14.48
2023-04-26T23:18:15.226Z,17.23
2023-04-26T23:20:45.507Z,15.98
2023-04-26T23:23:15.874Z,17.30
2023-04-26T23:25:46.375Z,22.85
2023-04-26T23:28:17.382Z,17.48
2023-04-26T23:30:50.812Z,21.52
2023-04-26T23:33:21.241Z,22.25
2023-04-26T23:35:52.210Z,22.30
2023-04-26T23:38:22.816Z,25.13
2023-04-26T23:40:53.266Z,27.30
2023-04-26T23:43:26.956Z,25.92
2023-04-26T23:45:57.384Z,27.98
2023-04-26T23:48:28.346Z,30.15
2023-04-26T23:50:59.077Z,29.95
2023-04-26T23:53:29.688Z,25.27
2023-04-26T23:56:00.032Z,24.23
2023-04-26T23:58:32.369Z,26.10
